Etusivu
METAR-TAF:

METAR-TAF

Lentoasemat :

Montevideo-Chippewa County Airport

Montevideo, Minnesota, Yhdysvallat

Leveyspiiri: 44-58N, Pituuspiiri: 095-43W, korkeus merenpinnasta: 315 m

Tämänhetkinen sää

Tämä raportti tehtiin 31 minuuttia sitten, kello 10.16 UTC
Tuuli 3 kn etelästä
Lämpötila 21°C
Kosteus 100%
Ilmanpaine 1018 hPa
Näkyvyys: 8.0 km
selkeää
utua

METAR: KMVE 031016Z AUTO 18003KT 5SM BR CLR 21/21 A3006 RMK AO2

Aika: 05:47 (10:47 UTC)


TAF: puuttuu

Säähavainnot ja -ennusteet yli 4000 lentoasemalta (METAR- ja TAF-raportit).

Käytössä olevat sääasemat on merkitty karttaan keltaisilla ja punaisilla pisteillä.

Aseta hiiri pisteen päälle nähdäksesi sääaseman nimen.

Klikkaa sitten nähdäksesi säähavainnot ja -ennusteet.

Kartan vaihtaminen: klikkaa mustalla rastilla varustettuja vihreitä pisteitä, niin voit zoomata sisään; viivalla varustettua vihreää pistettä, niin voit zoomata ulos tai vihreitä nuolia, niin pääset viereisille kartoille.


METAR-TAF: